createdAt,value
2019-02-06T00:00:48.727Z,14.73
2019-02-06T00:03:21.255Z,13.90
2019-02-06T00:05:50.768Z,14.77
2019-02-06T00:08:20.236Z,14.67
2019-02-06T00:10:49.479Z,14.73
2019-02-06T00:13:18.744Z,14.60
2019-02-06T00:15:48.508Z,14.87
2019-02-06T00:18:17.768Z,15.30
2019-02-06T00:20:47.099Z,15.57
2019-02-06T00:23:16.379Z,14.57
2019-02-06T00:25:45.848Z,14.37
2019-02-06T00:28:15.097Z,14.43
2019-02-06T00:30:46.199Z,14.00
2019-02-06T00:33:15.505Z,13.53
2019-02-06T00:35:44.775Z,13.30
2019-02-06T00:38:14.104Z,14.43
2019-02-06T00:40:43.439Z,14.90
2019-02-06T00:43:12.719Z,15.43
2019-02-06T00:45:42.331Z,13.87
2019-02-06T00:48:11.639Z,12.97
2019-02-06T00:50:40.908Z,14.77
2019-02-06T00:53:10.295Z,13.13
2019-02-06T00:55:39.715Z,14.00
2019-02-06T00:58:08.918Z,13.63
2019-02-06T01:00:38.672Z,12.37
2019-02-06T01:03:08.344Z,13.03
2019-02-06T01:05:38.877Z,13.63
2019-02-06T01:08:08.423Z,14.17
2019-02-06T01:10:38.555Z,14.73
2019-02-06T01:13:07.991Z,12.93
2019-02-06T01:15:37.675Z,13.60
2019-02-06T01:18:06.971Z,14.37
2019-02-06T01:20:36.227Z,13.73
2019-02-06T01:23:05.763Z,13.10
2019-02-06T01:25:35.128Z,14.17
2019-02-06T01:28:04.423Z,13.77
2019-02-06T01:30:52.708Z,12.97
2019-02-06T01:33:22.038Z,14.03
2019-02-06T01:35:51.318Z,13.53
2019-02-06T01:38:20.673Z,14.00
2019-02-06T01:40:50.049Z,13.20
2019-02-06T01:43:19.690Z,14.33
2019-02-06T01:45:48.972Z,12.67
2019-02-06T01:48:18.323Z,13.83
2019-02-06T01:50:47.554Z,14.27
2019-02-06T01:53:16.822Z,13.67
2019-02-06T01:55:46.058Z,12.83
2019-02-06T01:58:15.293Z,13.57
2019-02-06T02:00:44.658Z,13.67
2019-02-06T02:03:13.998Z,14.30
2019-02-06T02:05:43.274Z,14.10
2019-02-06T02:08:12.518Z,13.33
2019-02-06T02:10:42.009Z,14.37
2019-02-06T02:13:11.258Z,14.67
2019-02-06T02:15:40.793Z,14.40
2019-02-06T02:18:10.065Z,13.90
2019-02-06T02:20:39.400Z,14.00
2019-02-06T02:23:08.669Z,14.97
2019-02-06T02:25:37.890Z,16.10
2019-02-06T02:28:07.241Z,14.17
2019-02-06T02:30:43.496Z,13.97
2019-02-06T02:33:12.822Z,13.43
2019-02-06T02:35:42.103Z,13.43
2019-02-06T02:38:11.379Z,14.40
2019-02-06T02:40:40.658Z,13.53
2019-02-06T02:43:10.241Z,14.63
2019-02-06T02:45:39.574Z,13.93
2019-02-06T02:48:09.022Z,12.90
2019-02-06T02:50:38.265Z,15.03
2019-02-06T02:53:07.534Z,13.00
2019-02-06T02:55:36.789Z,14.83
2019-02-06T02:58:07.753Z,14.60
2019-02-06T03:00:48.546Z,13.13
2019-02-06T03:03:36.833Z,12.13
2019-02-06T03:06:06.433Z,12.70
2019-02-06T03:08:35.858Z,12.33
2019-02-06T03:11:05.490Z,12.67
2019-02-06T03:13:34.747Z,12.73
2019-02-06T03:16:04.212Z,12.77
2019-02-06T03:18:33.476Z,13.93
2019-02-06T03:21:02.869Z,12.20
2019-02-06T03:23:32.094Z,13.97
2019-02-06T03:26:01.342Z,13.30
2019-02-06T03:28:30.610Z,12.43
2019-02-06T03:30:59.887Z,12.80
2019-02-06T03:33:29.150Z,12.57
2019-02-06T03:35:58.432Z,12.93
2019-02-06T03:38:27.689Z,14.10
2019-02-06T03:40:57.005Z,12.37
2019-02-06T03:43:26.372Z,12.83
2019-02-06T03:45:55.628Z,12.30
2019-02-06T03:48:25.060Z,13.03
2019-02-06T03:50:54.503Z,13.37
2019-02-06T03:53:24.055Z,12.77
2019-02-06T03:55:53.332Z,12.03
2019-02-06T03:58:22.569Z,12.07
2019-02-06T04:00:51.847Z,14.10
2019-02-06T04:03:21.248Z,14.03
2019-02-06T04:05:50.530Z,11.93
2019-02-06T04:08:20.120Z,13.57
2019-02-06T04:10:49.431Z,12.97
2019-02-06T04:13:18.719Z,13.83
2019-02-06T04:15:48.019Z,13.17
2019-02-06T04:18:17.259Z,13.37
2019-02-06T04:20:46.535Z,13.53
2019-02-06T04:23:18.196Z,12.57
2019-02-06T04:25:47.471Z,12.73
2019-02-06T04:28:16.820Z,12.30
2019-02-06T04:30:46.123Z,12.30
2019-02-06T04:33:15.372Z,12.77
2019-02-06T04:35:44.639Z,13.57
2019-02-06T04:38:14.128Z,12.80
2019-02-06T04:40:43.459Z,12.97
2019-02-06T04:43:12.739Z,12.80
2019-02-06T04:45:42.023Z,13.80
2019-02-06T04:48:11.311Z,12.97
2019-02-06T04:50:40.656Z,13.43
2019-02-06T04:53:10.347Z,13.47
2019-02-06T04:55:39.719Z,13.23
2019-02-06T04:58:09.047Z,14.20
2019-02-06T05:00:39.224Z,12.50
2019-02-06T05:03:08.507Z,14.07
2019-02-06T05:05:37.839Z,14.63
2019-02-06T05:08:08.792Z,14.43
2019-02-06T05:10:38.034Z,13.20
2019-02-06T05:13:07.330Z,14.63
2019-02-06T05:15:36.586Z,13.37
2019-02-06T05:18:05.758Z,12.93
2019-02-06T05:20:37.570Z,13.43
2019-02-06T05:23:08.390Z,12.50
2019-02-06T05:25:37.682Z,13.80
2019-02-06T05:28:07.638Z,13.57
2019-02-06T05:30:37.034Z,14.90
2019-02-06T05:33:06.319Z,12.77
2019-02-06T05:35:35.840Z,13.10
2019-02-06T05:38:05.676Z,13.77
2019-02-06T05:40:34.938Z,13.40
2019-02-06T05:43:04.234Z,15.57
2019-02-06T05:45:33.462Z,14.23
2019-02-06T05:48:02.798Z,16.10
2019-02-06T05:50:32.055Z,14.87
2019-02-06T05:53:01.322Z,16.67
2019-02-06T05:55:30.803Z,16.73
2019-02-06T05:58:00.249Z,14.43
2019-02-06T06:00:40.937Z,15.50
2019-02-06T06:03:11.071Z,15.40
2019-02-06T06:05:40.387Z,14.50
2019-02-06T06:08:10.083Z,17.37
2019-02-06T06:10:39.354Z,17.00
2019-02-06T06:13:08.665Z,17.77
2019-02-06T06:15:37.949Z,15.73
2019-02-06T06:18:07.297Z,16.97
2019-02-06T06:20:36.569Z,18.80
2019-02-06T06:23:05.810Z,27.27
2019-02-06T06:25:35.113Z,18.80
2019-02-06T06:28:04.489Z,19.00
2019-02-06T06:30:33.835Z,23.47
2019-02-06T06:33:03.389Z,17.77
2019-02-06T06:35:32.771Z,23.13
2019-02-06T06:38:02.586Z,16.77
2019-02-06T06:40:32.089Z,24.23
2019-02-06T06:43:01.473Z,19.30
2019-02-06T06:45:30.749Z,19.13
2019-02-06T06:48:00.022Z,19.10
2019-02-06T06:50:29.253Z,20.17
2019-02-06T06:52:58.526Z,17.30
2019-02-06T06:55:28.099Z,20.83
2019-02-06T06:57:57.345Z,20.07
2019-02-06T07:00:28.193Z,17.00
2019-02-06T07:02:57.555Z,23.57
2019-02-06T07:05:27.508Z,21.13
2019-02-06T07:08:08.819Z,19.83
2019-02-06T07:10:28.085Z,20.40
2019-02-06T07:12:57.340Z,21.00
2019-02-06T07:15:28.992Z,23.30
2019-02-06T07:17:58.442Z,17.77
2019-02-06T07:20:27.713Z,16.47
2019-02-06T07:22:56.957Z,22.07
2019-02-06T07:25:26.221Z,22.07
2019-02-06T07:27:55.465Z,18.57
2019-02-06T07:30:30.068Z,20.50
2019-02-06T07:32:59.313Z,21.33
2019-02-06T07:35:28.844Z,16.50
2019-02-06T07:37:58.325Z,19.73
2019-02-06T07:40:27.700Z,19.23
2019-02-06T07:42:57.124Z,17.60
2019-02-06T07:45:26.396Z,18.63
2019-02-06T07:47:55.635Z,16.43
2019-02-06T07:50:27.188Z,18.40
2019-02-06T07:52:56.733Z,19.87
2019-02-06T07:55:26.355Z,18.67
2019-02-06T07:57:55.903Z,20.57
2019-02-06T08:00:25.624Z,16.37
2019-02-06T08:02:55.200Z,19.77
2019-02-06T08:05:24.479Z,17.07
2019-02-06T08:07:54.063Z,15.93
2019-02-06T08:10:25.815Z,15.33
2019-02-06T08:12:55.254Z,16.73
2019-02-06T08:15:24.619Z,15.17
2019-02-06T08:17:53.879Z,18.07
2019-02-06T08:20:23.725Z,16.17
2019-02-06T08:22:53.635Z,17.30
2019-02-06T08:25:23.327Z,17.20
2019-02-06T08:27:52.909Z,15.17
2019-02-06T08:30:27.738Z,15.20
2019-02-06T08:32:56.992Z,12.77
2019-02-06T08:35:26.263Z,14.60
2019-02-06T08:37:55.715Z,17.37
2019-02-06T08:40:25.524Z,15.03
2019-02-06T08:42:54.942Z,16.03
2019-02-06T08:45:24.303Z,13.97
2019-02-06T08:47:53.778Z,15.77
2019-02-06T08:50:23.398Z,14.60
2019-02-06T08:52:52.938Z,13.50
2019-02-06T08:55:24.438Z,14.00
2019-02-06T08:57:54.866Z,13.80
2019-02-06T09:00:29.263Z,13.23
2019-02-06T09:02:58.550Z,15.07
2019-02-06T09:05:28.159Z,14.17
2019-02-06T09:07:57.454Z,16.90
2019-02-06T09:10:26.898Z,15.93
2019-02-06T09:12:57.014Z,14.43
2019-02-06T09:15:27.425Z,13.83
2019-02-06T09:17:57.174Z,14.70
2019-02-06T09:20:27.139Z,14.90
2019-02-06T09:22:56.738Z,15.17
2019-02-06T09:25:26.002Z,14.90
2019-02-06T09:27:55.714Z,13.63
2019-02-06T09:30:26.634Z,15.03
2019-02-06T09:32:57.102Z,12.53
2019-02-06T09:35:26.752Z,12.07
2019-02-06T09:37:56.003Z,13.40
2019-02-06T09:40:27.186Z,13.23
2019-02-06T09:42:56.566Z,11.67
2019-02-06T09:45:26.174Z,13.93
2019-02-06T09:47:55.459Z,13.80
2019-02-06T09:50:33.532Z,11.87
2019-02-06T09:53:02.771Z,12.87
2019-02-06T09:55:32.057Z,12.30
2019-02-06T09:58:01.359Z,12.47
2019-02-06T10:00:33.150Z,11.80
2019-02-06T10:03:02.734Z,11.03
2019-02-06T10:05:32.130Z,13.43
2019-02-06T10:08:02.009Z,12.17
2019-02-06T10:10:31.295Z,12.33
2019-02-06T10:13:00.574Z,11.63
2019-02-06T10:15:32.202Z,11.07
2019-02-06T10:18:02.545Z,10.90
2019-02-06T10:20:34.278Z,10.90
2019-02-06T10:23:03.858Z,9.53
2019-02-06T10:25:33.209Z,11.40
2019-02-06T10:28:02.505Z,12.70
2019-02-06T10:30:37.378Z,11.90
2019-02-06T10:33:06.930Z,13.83
2019-02-06T10:35:36.245Z,14.93
2019-02-06T10:38:06.806Z,11.73
2019-02-06T10:40:36.169Z,11.73
2019-02-06T10:43:06.019Z,9.23
2019-02-06T10:45:35.749Z,9.70
2019-02-06T10:48:05.490Z,9.10
2019-02-06T10:50:37.257Z,8.50
2019-02-06T10:53:06.613Z,8.17
2019-02-06T10:55:35.905Z,7.23
2019-02-06T10:58:05.575Z,7.77
2019-02-06T11:00:38.278Z,7.63
2019-02-06T11:03:07.545Z,8.00
2019-02-06T11:05:36.889Z,8.03
2019-02-06T11:08:06.654Z,7.87
2019-02-06T11:10:35.939Z,8.90
2019-02-06T11:13:05.946Z,7.70
2019-02-06T11:15:35.718Z,7.73
2019-02-06T11:18:05.409Z,7.80
2019-02-06T11:20:35.373Z,8.17
2019-02-06T11:23:05.189Z,7.20
2019-02-06T11:25:34.728Z,7.83
2019-02-06T11:28:04.196Z,9.00
2019-02-06T11:30:34.208Z,6.87
2019-02-06T11:33:03.692Z,8.40
2019-02-06T11:35:33.005Z,8.50
2019-02-06T11:38:02.284Z,8.37
2019-02-06T11:40:31.548Z,8.97
2019-02-06T11:43:00.856Z,10.07
2019-02-06T11:45:31.930Z,12.90
2019-02-06T11:48:01.743Z,11.87
2019-02-06T11:50:37.670Z,10.30
2019-02-06T11:53:08.276Z,8.30
2019-02-06T11:55:37.553Z,9.20
2019-02-06T11:58:07.580Z,9.73
2019-02-06T12:00:48.773Z,11.30
2019-02-06T12:03:18.062Z,9.87
2019-02-06T12:05:47.316Z,10.03
2019-02-06T12:08:16.588Z,8.57
2019-02-06T12:10:46.157Z,11.23
2019-02-06T12:13:15.560Z,14.53
2019-02-06T12:15:44.911Z,10.20
2019-02-06T12:18:14.184Z,12.33
2019-02-06T12:20:43.423Z,9.33
2019-02-06T12:23:12.796Z,9.43
2019-02-06T12:25:42.072Z,11.73
2019-02-06T12:28:11.427Z,12.57
2019-02-06T12:30:40.770Z,9.00
2019-02-06T12:33:10.048Z,9.17
2019-02-06T12:35:39.291Z,8.77
2019-02-06T12:38:08.571Z,9.90
2019-02-06T12:40:37.855Z,12.00
2019-02-06T12:43:10.605Z,14.10
2019-02-06T12:45:38.936Z,15.37
2019-02-06T12:48:08.980Z,31.73
2019-02-06T12:50:38.363Z,9.07
2019-02-06T12:53:07.613Z,30.43
2019-02-06T12:55:38.096Z,31.33
2019-02-06T12:58:08.340Z,10.27
2019-02-06T13:00:38.715Z,43.13
2019-02-06T13:03:07.940Z,12.63
2019-02-06T13:05:37.523Z,13.53
2019-02-06T13:08:07.473Z,23.70
2019-02-06T13:10:36.729Z,30.63
2019-02-06T13:13:06.655Z,18.50
2019-02-06T13:15:36.284Z,39.57
2019-02-06T13:18:05.862Z,18.77
2019-02-06T13:20:35.198Z,33.47
2019-02-06T13:23:04.999Z,14.30
2019-02-06T13:25:34.255Z,15.47
2019-02-06T13:28:03.727Z,25.03
2019-02-06T13:30:35.626Z,12.60
2019-02-06T13:33:06.259Z,17.80
2019-02-06T13:35:35.550Z,11.57
2019-02-06T13:38:05.169Z,12.77
2019-02-06T13:40:45.178Z,20.37
2019-02-06T13:43:05.527Z,9.97
2019-02-06T13:45:40.266Z,17.23
2019-02-06T13:48:09.574Z,21.93
2019-02-06T13:50:38.843Z,18.90
2019-02-06T13:53:08.078Z,19.77
2019-02-06T13:55:37.442Z,13.23
2019-02-06T13:58:07.085Z,15.40
2019-02-06T14:00:37.398Z,11.57
2019-02-06T14:03:07.470Z,10.70
2019-02-06T14:05:37.386Z,11.87
2019-02-06T14:08:11.918Z,10.53
2019-02-06T14:10:41.182Z,14.30
2019-02-06T14:13:10.472Z,21.90
2019-02-06T14:15:41.169Z,25.73
2019-02-06T14:18:10.953Z,16.77
2019-02-06T14:20:40.469Z,15.50
2019-02-06T14:23:33.197Z,17.77
2019-02-06T14:26:23.481Z,28.90
2019-02-06T14:29:42.662Z,15.90
2019-02-06T14:32:54.809Z,16.70
2019-02-06T14:35:58.698Z,23.83
2019-02-06T14:39:11.237Z,13.97
2019-02-06T14:42:16.265Z,18.97
2019-02-06T14:45:50.997Z,11.37
2019-02-06T14:49:03.749Z,17.23
2019-02-06T14:52:29.389Z,26.73
2019-02-06T14:55:30.838Z,19.00
2019-02-06T14:58:37.037Z,28.80
2019-02-06T15:01:35.033Z,21.43
2019-02-06T15:05:03.377Z,18.87
2019-02-06T15:08:03.617Z,18.90
2019-02-06T15:10:44.158Z,28.93
2019-02-06T15:13:53.505Z,22.80
2019-02-06T15:16:50.500Z,21.83
2019-02-06T15:19:58.473Z,23.17
2019-02-06T15:23:32.873Z,17.73
2019-02-06T15:26:40.952Z,71.40
2019-02-06T15:29:20.973Z,53.27
2019-02-06T15:32:14.181Z,43.93
2019-02-06T15:35:11.668Z,49.53
2019-02-06T15:38:08.624Z,96.97
2019-02-06T15:41:18.764Z,57.13
2019-02-06T15:44:25.020Z,66.00
2019-02-06T15:47:31.312Z,71.73
2019-02-06T15:50:14.102Z,83.83
2019-02-06T15:53:13.128Z,84.93
2019-02-06T15:56:10.500Z,130.80
2019-02-06T15:59:15.760Z,73.90
2019-02-06T16:02:07.964Z,69.30
2019-02-06T16:05:28.625Z,37.93
2019-02-06T16:08:31.635Z,42.43
2019-02-06T16:11:42.531Z,49.83
2019-02-06T16:14:50.283Z,49.47
2019-02-06T16:17:54.231Z,38.40
2019-02-06T16:20:58.576Z,32.63
2019-02-06T16:24:06.256Z,66.63
2019-02-06T16:27:10.443Z,105.00
2019-02-06T16:30:26.403Z,193.13
2019-02-06T16:33:14.619Z,252.77
2019-02-06T16:36:23.762Z,181.70
2019-02-06T16:39:07.020Z,240.07
2019-02-06T16:42:26.196Z,154.17
2019-02-06T16:45:16.315Z,210.03
2019-02-06T16:47:58.357Z,265.90
2019-02-06T16:51:20.896Z,187.40
2019-02-06T16:54:15.911Z,134.77
2019-02-06T16:57:15.315Z,124.67
2019-02-06T17:00:23.269Z,63.97
2019-02-06T17:03:18.351Z,56.37
2019-02-06T17:06:07.212Z,47.80
2019-02-06T17:09:29.603Z,31.83
2019-02-06T17:12:27.379Z,33.60
2019-02-06T17:15:27.055Z,38.07
2019-02-06T17:18:32.583Z,40.00
2019-02-06T17:21:43.399Z,54.47
2019-02-06T17:24:51.655Z,63.53
2019-02-06T17:27:47.149Z,57.10
2019-02-06T17:30:59.131Z,63.47
2019-02-06T17:34:03.451Z,48.00
2019-02-06T17:37:11.875Z,61.77
2019-02-06T17:40:09.432Z,53.73
2019-02-06T17:42:59.935Z,50.90
2019-02-06T17:46:03.067Z,47.90
2019-02-06T17:49:26.027Z,38.40
2019-02-06T17:52:51.395Z,102.77
2019-02-06T17:55:22.654Z,46.17
2019-02-06T17:57:54.902Z,54.07
2019-02-06T18:00:37.563Z,51.37
2019-02-06T18:03:08.395Z,62.10
2019-02-06T18:05:40.182Z,82.63
2019-02-06T18:08:08.714Z,54.37
2019-02-06T18:10:38.194Z,105.70
2019-02-06T18:13:07.975Z,108.40
2019-02-06T18:15:37.346Z,68.20
2019-02-06T18:18:06.706Z,57.40
2019-02-06T18:20:36.118Z,60.63
2019-02-06T18:23:06.418Z,71.33
2019-02-06T18:25:35.806Z,65.00
2019-02-06T18:28:05.761Z,65.70
2019-02-06T18:30:35.166Z,55.17
2019-02-06T18:33:05.311Z,79.42
2019-02-06T18:35:34.637Z,74.90
2019-02-06T18:38:03.958Z,111.10
2019-02-06T18:40:33.924Z,64.23
2019-02-06T18:43:03.209Z,61.83
2019-02-06T18:45:32.470Z,104.17
2019-02-06T18:48:02.832Z,80.63
2019-02-06T18:50:32.432Z,80.27
2019-02-06T18:53:02.742Z,95.03
2019-02-06T18:55:32.006Z,56.60
2019-02-06T18:58:01.377Z,43.40
2019-02-06T19:00:32.494Z,43.40
2019-02-06T19:03:03.007Z,70.87
2019-02-06T19:05:34.859Z,48.57
2019-02-06T19:08:04.171Z,32.73
2019-02-06T19:10:33.801Z,38.10
2019-02-06T19:13:03.465Z,48.87
2019-02-06T19:15:33.550Z,42.30
2019-02-06T19:18:02.983Z,34.83
2019-02-06T19:20:32.313Z,41.83
2019-02-06T19:23:01.622Z,62.60
2019-02-06T19:25:30.889Z,34.57
2019-02-06T19:28:00.208Z,35.17
2019-02-06T19:30:31.447Z,65.20
2019-02-06T19:33:00.723Z,37.43
2019-02-06T19:35:30.112Z,42.83
2019-02-06T19:37:59.421Z,41.23
2019-02-06T19:40:28.709Z,50.60
2019-02-06T19:43:02.096Z,44.73
2019-02-06T19:45:28.910Z,60.70
2019-02-06T19:47:58.506Z,50.90
2019-02-06T19:50:30.220Z,53.03
2019-02-06T19:52:59.543Z,92.30
2019-02-06T19:55:29.008Z,80.07
2019-02-06T19:57:58.377Z,87.33
2019-02-06T20:00:29.341Z,87.47
2019-02-06T20:02:58.761Z,61.47
2019-02-06T20:05:28.281Z,84.70
2019-02-06T20:07:57.609Z,47.10
2019-02-06T20:10:32.876Z,66.30
2019-02-06T20:13:10.645Z,89.50
2019-02-06T20:15:33.282Z,68.30
2019-02-06T20:18:02.712Z,56.00
2019-02-06T20:20:32.480Z,64.33
2019-02-06T20:23:01.796Z,36.63
2019-02-06T20:25:31.144Z,47.07
2019-02-06T20:28:00.452Z,66.60
2019-02-06T20:30:29.818Z,71.77
2019-02-06T20:32:59.122Z,60.73
2019-02-06T20:35:28.707Z,57.20
2019-02-06T20:37:58.377Z,42.00
2019-02-06T20:40:32.658Z,68.73
2019-02-06T20:43:01.912Z,35.97
2019-02-06T20:45:31.673Z,54.00
2019-02-06T20:48:00.996Z,51.10
2019-02-06T20:50:31.470Z,51.70
2019-02-06T20:53:01.164Z,54.73
2019-02-06T20:55:30.460Z,41.13
2019-02-06T20:57:59.933Z,65.97
2019-02-06T21:00:34.645Z,45.87
2019-02-06T21:03:04.632Z,62.00
2019-02-06T21:05:33.911Z,35.10
2019-02-06T21:08:03.593Z,31.83
2019-02-06T21:10:32.899Z,45.03
2019-02-06T21:13:02.187Z,39.13
2019-02-06T21:15:32.922Z,36.03
2019-02-06T21:18:02.423Z,53.67
2019-02-06T21:20:31.897Z,56.73
2019-02-06T21:23:01.491Z,49.10
2019-02-06T21:25:30.775Z,45.90
2019-02-06T21:28:00.052Z,65.80
2019-02-06T21:30:31.318Z,46.43
2019-02-06T21:33:01.587Z,79.20
2019-02-06T21:35:31.025Z,77.70
2019-02-06T21:38:00.675Z,101.07
2019-02-06T21:40:31.835Z,101.03
2019-02-06T21:43:01.167Z,57.20
2019-02-06T21:45:30.478Z,45.87
2019-02-06T21:47:59.724Z,41.37
2019-02-06T21:50:29.036Z,33.43
2019-02-06T21:52:58.846Z,31.70
2019-02-06T21:55:28.202Z,37.00
2019-02-06T21:57:57.530Z,37.80
2019-02-06T22:00:29.033Z,44.83
2019-02-06T22:02:58.294Z,45.03
2019-02-06T22:05:27.794Z,59.13
2019-02-06T22:07:57.310Z,91.97
2019-02-06T22:10:26.582Z,105.87
2019-02-06T22:12:55.871Z,69.70
2019-02-06T22:15:26.666Z,42.43
2019-02-06T22:17:56.068Z,41.93
2019-02-06T22:20:25.826Z,37.50
2019-02-06T22:22:55.071Z,32.90
2019-02-06T22:25:24.482Z,40.93
2019-02-06T22:27:53.874Z,56.47
2019-02-06T22:30:24.746Z,50.37
2019-02-06T22:32:54.334Z,83.53
2019-02-06T22:35:24.066Z,69.07
2019-02-06T22:37:53.414Z,64.53
2019-02-06T22:40:23.797Z,47.50
2019-02-06T22:42:53.174Z,46.23
2019-02-06T22:45:24.250Z,45.33
2019-02-06T22:47:53.565Z,35.83
2019-02-06T22:50:24.613Z,33.87
2019-02-06T22:52:53.945Z,41.77
2019-02-06T22:55:23.303Z,37.40
2019-02-06T22:57:52.902Z,38.00
2019-02-06T23:00:53.367Z,60.97
2019-02-06T23:03:31.703Z,38.93
2019-02-06T23:06:01.101Z,35.90
2019-02-06T23:08:30.456Z,40.23
2019-02-06T23:11:00.045Z,47.50
2019-02-06T23:13:29.398Z,41.73
2019-02-06T23:15:59.638Z,42.37
2019-02-06T23:18:29.004Z,43.13
2019-02-06T23:20:58.261Z,54.17
2019-02-06T23:23:27.537Z,87.17
2019-02-06T23:25:57.185Z,55.37
2019-02-06T23:28:26.441Z,54.33
2019-02-06T23:30:55.711Z,37.77
2019-02-06T23:33:24.993Z,43.60
2019-02-06T23:35:54.313Z,40.17
2019-02-06T23:38:23.690Z,38.20
2019-02-06T23:40:52.948Z,43.13
2019-02-06T23:43:22.272Z,41.90
2019-02-06T23:45:51.549Z,40.60
2019-02-06T23:48:21.157Z,40.40
2019-02-06T23:50:50.537Z,55.73
2019-02-06T23:53:19.864Z,42.03
2019-02-06T23:55:49.204Z,33.70
2019-02-06T23:58:18.516Z,36.67
